createdAt,value
2019-01-26T00:00:44.015Z,24.47
2019-01-26T00:03:12.829Z,25.50
2019-01-26T00:05:42.349Z,23.15
2019-01-26T00:08:10.968Z,24.57
2019-01-26T00:10:39.446Z,24.17
2019-01-26T00:13:07.992Z,23.00
2019-01-26T00:15:36.640Z,24.75
2019-01-26T00:18:05.511Z,23.38
2019-01-26T00:20:36.389Z,23.23
2019-01-26T00:23:04.488Z,23.92
2019-01-26T00:25:32.963Z,22.75
2019-01-26T00:28:01.446Z,23.02
2019-01-26T00:30:30.146Z,24.05
2019-01-26T00:32:58.628Z,24.65
2019-01-26T00:35:30.119Z,22.32
2019-01-26T00:37:58.727Z,23.83
2019-01-26T00:40:27.279Z,23.73
2019-01-26T00:42:55.819Z,24.10
2019-01-26T00:45:25.024Z,23.20
2019-01-26T00:47:53.492Z,22.70
2019-01-26T00:50:22.041Z,23.22
2019-01-26T00:52:50.747Z,23.60
2019-01-26T00:55:19.286Z,22.67
2019-01-26T00:57:47.832Z,23.35
2019-01-26T01:00:21.104Z,23.38
2019-01-26T01:02:49.747Z,22.70
2019-01-26T01:05:18.443Z,21.90
2019-01-26T01:07:48.110Z,22.15
2019-01-26T01:10:18.435Z,22.25
2019-01-26T01:12:47.364Z,23.50
2019-01-26T01:15:18.316Z,22.25
2019-01-26T01:17:46.789Z,21.73
2019-01-26T01:20:15.898Z,23.25
2019-01-26T01:22:44.494Z,23.03
2019-01-26T01:25:14.326Z,23.47
2019-01-26T01:27:42.879Z,22.02
2019-01-26T01:30:14.628Z,20.75
2019-01-26T01:32:43.169Z,21.33
2019-01-26T01:35:11.712Z,21.20
2019-01-26T01:37:40.307Z,22.15
2019-01-26T01:40:11.340Z,23.83
2019-01-26T01:42:40.258Z,23.47
2019-01-26T01:45:14.346Z,22.37
2019-01-26T01:47:44.112Z,21.17
2019-01-26T01:50:13.670Z,20.90
2019-01-26T01:52:43.348Z,20.35
2019-01-26T01:55:12.191Z,22.32
2019-01-26T01:57:40.657Z,23.12
2019-01-26T02:00:15.137Z,22.13
2019-01-26T02:02:43.680Z,21.70
2019-01-26T02:05:12.381Z,21.35
2019-01-26T02:07:41.013Z,21.12
2019-01-26T02:10:13.513Z,20.10
2019-01-26T02:12:42.015Z,21.12
2019-01-26T02:15:12.081Z,22.07
2019-01-26T02:17:40.881Z,21.48
2019-01-26T02:20:12.405Z,21.10
2019-01-26T02:22:40.934Z,22.50
2019-01-26T02:25:09.669Z,22.45
2019-01-26T02:27:38.212Z,21.27
2019-01-26T02:30:10.406Z,22.90
2019-01-26T02:32:38.888Z,21.37
2019-01-26T02:35:07.826Z,21.95
2019-01-26T02:37:36.409Z,21.35
2019-01-26T02:40:08.070Z,21.30
2019-01-26T02:42:36.624Z,21.33
2019-01-26T02:45:07.991Z,20.43
2019-01-26T02:47:36.473Z,20.82
2019-01-26T02:50:08.099Z,21.57
2019-01-26T02:52:36.628Z,22.45
2019-01-26T02:55:06.249Z,21.90
2019-01-26T02:57:34.886Z,20.00
2019-01-26T03:00:05.107Z,22.55
2019-01-26T03:02:34.621Z,21.07
2019-01-26T03:05:03.769Z,21.60
2019-01-26T03:07:32.357Z,22.13
2019-01-26T03:10:00.917Z,21.43
2019-01-26T03:12:30.352Z,21.00
2019-01-26T03:14:58.892Z,22.10
2019-01-26T03:17:27.372Z,21.55
2019-01-26T03:19:55.846Z,21.57
2019-01-26T03:22:24.414Z,22.23
2019-01-26T03:24:52.956Z,22.45
2019-01-26T03:27:21.432Z,22.85
2019-01-26T03:29:49.999Z,22.85
2019-01-26T03:32:18.672Z,21.90
2019-01-26T03:34:48.577Z,22.25
2019-01-26T03:37:17.174Z,21.57
2019-01-26T03:39:45.720Z,21.15
2019-01-26T03:42:15.157Z,20.77
2019-01-26T03:44:43.781Z,20.95
2019-01-26T03:47:18.222Z,19.52
2019-01-26T03:49:46.709Z,20.75
2019-01-26T03:52:15.250Z,20.90
2019-01-26T03:54:43.774Z,21.33
2019-01-26T03:57:12.324Z,20.68
2019-01-26T03:59:40.854Z,21.20
2019-01-26T04:02:09.540Z,22.73
2019-01-26T04:04:38.088Z,23.27
2019-01-26T04:07:06.792Z,21.48
2019-01-26T04:09:35.291Z,21.77
2019-01-26T04:12:03.813Z,22.60
2019-01-26T04:14:33.425Z,21.65
2019-01-26T04:17:01.968Z,22.13
2019-01-26T04:19:30.426Z,22.00
2019-01-26T04:21:58.965Z,22.20
2019-01-26T04:24:27.494Z,22.27
2019-01-26T04:26:55.980Z,23.95
2019-01-26T04:29:24.551Z,26.48
2019-01-26T04:31:53.028Z,24.70
2019-01-26T04:34:21.500Z,24.50
2019-01-26T04:36:50.041Z,21.90
2019-01-26T04:39:18.513Z,22.20
2019-01-26T04:41:46.972Z,20.93
2019-01-26T04:44:15.507Z,21.05
2019-01-26T04:46:44.050Z,23.47
2019-01-26T04:49:12.525Z,22.73
2019-01-26T04:51:41.092Z,26.17
2019-01-26T04:54:09.631Z,30.70
2019-01-26T04:56:38.175Z,23.77
2019-01-26T04:59:06.735Z,19.98
2019-01-26T05:01:35.233Z,24.57
2019-01-26T05:04:03.977Z,31.13
2019-01-26T05:06:32.506Z,22.33
2019-01-26T05:09:01.995Z,21.80
2019-01-26T05:11:30.453Z,22.30
2019-01-26T05:13:58.973Z,22.00
2019-01-26T05:16:28.417Z,20.50
2019-01-26T05:18:57.046Z,20.90
2019-01-26T05:21:25.978Z,20.83
2019-01-26T05:23:54.443Z,20.63
2019-01-26T05:26:22.982Z,19.73
2019-01-26T05:28:51.524Z,18.33
2019-01-26T05:31:19.995Z,20.13
2019-01-26T05:33:48.474Z,18.07
2019-01-26T05:36:17.197Z,18.50
2019-01-26T05:38:45.667Z,16.77
2019-01-26T05:41:14.133Z,17.93
2019-01-26T05:43:42.863Z,17.97
2019-01-26T05:46:11.326Z,20.70
2019-01-26T05:48:39.803Z,21.73
2019-01-26T05:51:08.320Z,19.37
2019-01-26T05:53:36.864Z,20.12
2019-01-26T05:56:05.568Z,19.33
2019-01-26T05:58:34.112Z,19.00
2019-01-26T06:01:02.594Z,16.20
2019-01-26T06:03:32.005Z,17.57
2019-01-26T06:06:01.481Z,18.23
2019-01-26T06:08:29.948Z,19.30
2019-01-26T06:10:58.499Z,17.40
2019-01-26T06:13:27.019Z,17.67
2019-01-26T06:15:55.499Z,18.67
2019-01-26T06:18:25.823Z,16.73
2019-01-26T06:20:54.343Z,17.97
2019-01-26T06:23:22.856Z,18.20
2019-01-26T06:25:51.349Z,19.82
2019-01-26T06:28:19.941Z,19.50
2019-01-26T06:30:48.482Z,19.47
2019-01-26T06:33:16.956Z,20.97
2019-01-26T06:35:45.487Z,20.57
2019-01-26T06:38:14.085Z,20.53
2019-01-26T06:40:42.583Z,20.03
2019-01-26T06:43:11.114Z,19.30
2019-01-26T06:45:39.600Z,21.02
2019-01-26T06:48:08.140Z,18.13
2019-01-26T06:50:36.741Z,19.17
2019-01-26T06:53:05.371Z,19.87
2019-01-26T06:55:33.901Z,20.77
2019-01-26T06:58:02.446Z,19.90
2019-01-26T07:00:31.298Z,19.80
2019-01-26T07:03:00.104Z,18.20
2019-01-26T07:05:33.143Z,20.90
2019-01-26T07:08:01.613Z,19.70
2019-01-26T07:10:30.146Z,19.47
2019-01-26T07:12:58.777Z,20.07
2019-01-26T07:15:27.247Z,20.50
2019-01-26T07:17:56.854Z,18.07
2019-01-26T07:20:26.395Z,18.17
2019-01-26T07:22:54.867Z,18.73
2019-01-26T07:25:23.418Z,25.93
2019-01-26T07:27:52.005Z,22.03
2019-01-26T07:30:22.678Z,18.53
2019-01-26T07:32:51.354Z,18.70
2019-01-26T07:35:20.013Z,19.43
2019-01-26T07:37:48.551Z,19.70
2019-01-26T07:40:22.158Z,20.43
2019-01-26T07:42:52.007Z,18.57
2019-01-26T07:45:20.831Z,22.73
2019-01-26T07:47:49.365Z,23.23
2019-01-26T07:50:23.446Z,22.33
2019-01-26T07:52:51.978Z,20.70
2019-01-26T07:55:20.585Z,20.83
2019-01-26T07:57:49.332Z,18.57
2019-01-26T08:00:23.422Z,19.67
2019-01-26T08:02:52.102Z,18.67
2019-01-26T08:05:20.875Z,19.57
2019-01-26T08:07:49.608Z,22.07
2019-01-26T08:10:20.949Z,22.73
2019-01-26T08:12:50.236Z,23.73
2019-01-26T08:15:21.588Z,21.37
2019-01-26T08:17:50.117Z,22.67
2019-01-26T08:20:20.683Z,19.17
2019-01-26T08:22:50.093Z,21.57
2019-01-26T08:25:31.350Z,22.13
2019-01-26T08:28:07.517Z,21.40
2019-01-26T08:30:36.178Z,23.47
2019-01-26T08:33:04.994Z,23.10
2019-01-26T08:35:33.535Z,25.50
2019-01-26T08:38:02.554Z,24.87
2019-01-26T08:40:31.017Z,26.10
2019-01-26T08:42:59.661Z,23.23
2019-01-26T08:45:28.246Z,19.43
2019-01-26T08:47:56.721Z,19.47
2019-01-26T08:50:25.647Z,18.37
2019-01-26T08:52:54.259Z,20.70
2019-01-26T08:55:23.158Z,18.80
2019-01-26T08:57:51.877Z,18.57
2019-01-26T09:00:22.606Z,20.23
2019-01-26T09:02:54.046Z,21.27
2019-01-26T09:05:27.585Z,20.47
2019-01-26T09:07:56.048Z,19.63
2019-01-26T09:10:24.516Z,21.60
2019-01-26T09:12:53.134Z,19.77
2019-01-26T09:15:22.503Z,20.27
2019-01-26T09:17:51.041Z,19.57
2019-01-26T09:20:19.560Z,20.27
2019-01-26T09:22:48.029Z,21.03
2019-01-26T09:25:17.430Z,20.10
2019-01-26T09:27:46.326Z,20.10
2019-01-26T09:30:23.344Z,20.43
2019-01-26T09:32:52.009Z,20.97
2019-01-26T09:35:20.484Z,21.07
2019-01-26T09:37:49.162Z,19.93
2019-01-26T09:40:20.191Z,21.53
2019-01-26T09:42:49.876Z,21.13
2019-01-26T09:45:19.807Z,22.00
2019-01-26T09:47:48.605Z,25.50
2019-01-26T09:50:17.911Z,25.73
2019-01-26T09:52:46.370Z,22.53
2019-01-26T09:55:19.829Z,23.73
2019-01-26T09:57:48.384Z,22.37
2019-01-26T10:00:19.505Z,21.60
2019-01-26T10:02:48.098Z,20.13
2019-01-26T10:05:17.014Z,21.83
2019-01-26T10:07:45.502Z,23.37
2019-01-26T10:10:15.709Z,26.77
2019-01-26T10:12:44.547Z,26.97
2019-01-26T10:15:22.195Z,22.60
2019-01-26T10:17:50.935Z,23.60
2019-01-26T10:20:22.384Z,23.57
2019-01-26T10:22:50.980Z,24.60
2019-01-26T10:25:19.783Z,25.43
2019-01-26T10:27:48.550Z,26.23
2019-01-26T10:30:33.745Z,27.45
2019-01-26T10:33:02.287Z,25.27
2019-01-26T10:35:44.913Z,24.33
2019-01-26T10:38:13.447Z,25.80
2019-01-26T10:40:43.775Z,27.40
2019-01-26T10:43:13.946Z,26.73
2019-01-26T10:45:42.473Z,26.87
2019-01-26T10:48:10.932Z,30.47
2019-01-26T10:50:39.461Z,30.23
2019-01-26T10:53:07.942Z,30.73
2019-01-26T10:55:36.401Z,28.93
2019-01-26T10:58:05.357Z,29.57
2019-01-26T11:00:33.974Z,29.73
2019-01-26T11:03:02.585Z,30.87
2019-01-26T11:05:32.164Z,30.17
2019-01-26T11:08:06.011Z,29.27
2019-01-26T11:10:34.731Z,30.63
2019-01-26T11:13:06.062Z,29.17
2019-01-26T11:15:34.663Z,29.43
2019-01-26T11:18:04.646Z,31.60
2019-01-26T11:20:33.240Z,32.43
2019-01-26T11:23:01.717Z,32.03
2019-01-26T11:25:30.243Z,32.50
2019-01-26T11:27:58.782Z,31.07
2019-01-26T11:30:29.058Z,30.87
2019-01-26T11:32:57.627Z,30.80
2019-01-26T11:35:26.534Z,28.87
2019-01-26T11:37:55.093Z,32.73
2019-01-26T11:40:23.662Z,34.03
2019-01-26T11:42:52.510Z,35.07
2019-01-26T11:45:22.894Z,36.70
2019-01-26T11:47:51.652Z,38.27
2019-01-26T11:50:21.882Z,38.73
2019-01-26T11:52:50.417Z,39.43
2019-01-26T11:55:33.017Z,38.70
2019-01-26T11:58:01.496Z,36.47
2019-01-26T12:00:31.765Z,38.17
2019-01-26T12:03:03.523Z,35.87
2019-01-26T12:05:35.186Z,37.93
2019-01-26T12:08:03.966Z,37.30
2019-01-26T12:10:32.684Z,35.63
2019-01-26T12:13:01.235Z,35.07
2019-01-26T12:15:30.717Z,36.43
2019-01-26T12:17:59.332Z,34.63
2019-01-26T12:20:27.867Z,31.70
2019-01-26T12:22:56.421Z,31.27
2019-01-26T12:25:25.086Z,30.60
2019-01-26T12:27:53.624Z,29.40
2019-01-26T12:30:22.085Z,27.45
2019-01-26T12:32:51.546Z,26.53
2019-01-26T12:35:20.109Z,25.33
2019-01-26T12:37:48.724Z,25.53
2019-01-26T12:40:17.275Z,24.33
2019-01-26T12:42:45.869Z,29.40
2019-01-26T12:45:20.535Z,30.63
2019-01-26T12:47:49.102Z,41.10
2019-01-26T12:50:18.863Z,33.23
2019-01-26T12:52:47.609Z,44.03
2019-01-26T12:55:17.762Z,50.40
2019-01-26T12:57:46.372Z,47.60
2019-01-26T13:00:20.625Z,48.10
2019-01-26T13:02:49.473Z,32.13
2019-01-26T13:05:18.272Z,32.60
2019-01-26T13:07:47.080Z,30.30
2019-01-26T13:10:36.860Z,28.20
2019-01-26T13:13:06.273Z,27.60
2019-01-26T13:15:34.932Z,31.47
2019-01-26T13:18:03.912Z,29.23
2019-01-26T13:20:32.677Z,29.43
2019-01-26T13:23:01.212Z,25.83
2019-01-26T13:25:29.801Z,26.47
2019-01-26T13:27:58.280Z,27.13
2019-01-26T13:30:26.743Z,26.03
2019-01-26T13:32:55.340Z,26.33
2019-01-26T13:35:24.113Z,30.50
2019-01-26T13:37:52.673Z,29.73
2019-01-26T13:40:28.029Z,27.87
2019-01-26T13:42:56.644Z,24.10
2019-01-26T13:45:25.186Z,26.37
2019-01-26T13:47:53.848Z,29.90
2019-01-26T13:50:22.305Z,21.33
2019-01-26T13:52:50.774Z,25.77
2019-01-26T13:55:21.146Z,31.37
2019-01-26T13:57:50.109Z,30.03
2019-01-26T14:00:33.788Z,31.20
2019-01-26T14:03:03.429Z,30.30
2019-01-26T14:05:31.899Z,30.13
2019-01-26T14:08:00.539Z,29.63
2019-01-26T14:10:30.079Z,30.53
2019-01-26T14:12:58.656Z,29.60
2019-01-26T14:15:27.197Z,32.17
2019-01-26T14:17:55.836Z,30.43
2019-01-26T14:20:25.846Z,28.77
2019-01-26T14:22:54.504Z,28.97
2019-01-26T14:25:23.514Z,30.30
2019-01-26T14:27:52.133Z,26.40
2019-01-26T14:30:36.017Z,25.73
2019-01-26T14:33:04.932Z,28.60
2019-01-26T14:35:33.483Z,29.53
2019-01-26T14:38:03.060Z,32.33
2019-01-26T14:40:31.775Z,36.27
2019-01-26T14:43:00.442Z,38.87
2019-01-26T14:45:29.341Z,37.40
2019-01-26T14:47:57.971Z,38.53
2019-01-26T14:50:26.526Z,41.80
2019-01-26T14:52:55.232Z,36.23
2019-01-26T14:55:26.147Z,33.40
2019-01-26T14:57:54.708Z,35.87
2019-01-26T15:00:31.740Z,34.00
2019-01-26T15:03:00.506Z,34.83
2019-01-26T15:05:29.621Z,41.03
2019-01-26T15:07:58.403Z,43.23
2019-01-26T15:10:27.209Z,43.05
2019-01-26T15:12:55.677Z,40.30
2019-01-26T15:15:24.578Z,38.23
2019-01-26T15:17:53.118Z,38.57
2019-01-26T15:20:24.251Z,59.20
2019-01-26T15:22:52.770Z,45.80
2019-01-26T15:25:21.385Z,41.50
2019-01-26T15:27:50.971Z,41.27
2019-01-26T15:30:25.001Z,39.90
2019-01-26T15:32:53.615Z,40.77
2019-01-26T15:35:22.182Z,46.30
2019-01-26T15:37:50.711Z,44.73
2019-01-26T15:40:20.313Z,43.17
2019-01-26T15:42:48.841Z,47.27
2019-01-26T15:45:23.212Z,42.27
2019-01-26T15:47:51.824Z,42.43
2019-01-26T15:50:20.459Z,47.13
2019-01-26T15:52:49.000Z,53.70
2019-01-26T15:55:20.518Z,66.57
2019-01-26T15:57:49.226Z,74.00
2019-01-26T16:00:23.274Z,82.37
2019-01-26T16:02:51.842Z,85.60
2019-01-26T16:05:20.675Z,92.27
2019-01-26T16:07:49.324Z,97.93
2019-01-26T16:10:25.004Z,98.03
2019-01-26T16:12:53.722Z,101.70
2019-01-26T16:15:27.373Z,103.10
2019-01-26T16:17:56.092Z,101.13
2019-01-26T16:20:24.915Z,102.93
2019-01-26T16:22:53.700Z,103.87
2019-01-26T16:25:22.396Z,103.47
2019-01-26T16:27:50.942Z,97.73
2019-01-26T16:30:25.097Z,99.40
2019-01-26T16:32:53.594Z,99.50
2019-01-26T16:35:22.137Z,105.87
2019-01-26T16:37:50.743Z,110.27
2019-01-26T16:40:21.557Z,112.10
2019-01-26T16:42:50.356Z,109.33
2019-01-26T16:45:24.600Z,90.53
2019-01-26T16:47:53.212Z,85.37
2019-01-26T16:50:27.685Z,87.03
2019-01-26T16:52:54.492Z,87.77
2019-01-26T16:55:23.315Z,80.87
2019-01-26T16:57:51.806Z,82.00
2019-01-26T17:00:23.401Z,79.80
2019-01-26T17:02:52.043Z,74.53
2019-01-26T17:05:25.765Z,71.77
2019-01-26T17:07:50.990Z,72.70
2019-01-26T17:10:20.898Z,70.40
2019-01-26T17:12:49.547Z,67.50
2019-01-26T17:15:18.224Z,68.33
2019-01-26T17:17:46.890Z,75.03
2019-01-26T17:20:21.398Z,73.33
2019-01-26T17:22:50.047Z,78.70
2019-01-26T17:25:18.697Z,70.63
2019-01-26T17:27:47.173Z,76.00
2019-01-26T17:30:18.757Z,74.57
2019-01-26T17:32:47.385Z,69.40
2019-01-26T17:35:15.942Z,69.03
2019-01-26T17:37:44.730Z,62.63
2019-01-26T17:40:15.840Z,65.23
2019-01-26T17:42:44.380Z,69.93
2019-01-26T17:45:15.940Z,68.37
2019-01-26T17:47:44.546Z,65.53
2019-01-26T17:50:21.881Z,63.17
2019-01-26T17:52:50.456Z,62.33
2019-01-26T17:55:18.998Z,63.20
2019-01-26T17:57:47.667Z,60.43
2019-01-26T18:00:44.229Z,60.40
2019-01-26T18:03:13.383Z,60.23
2019-01-26T18:05:41.953Z,55.90
2019-01-26T18:08:11.460Z,49.80
2019-01-26T18:10:40.837Z,50.40
2019-01-26T18:13:09.462Z,49.87
2019-01-26T18:15:38.073Z,51.43
2019-01-26T18:18:06.673Z,51.27
2019-01-26T18:20:35.228Z,52.00
2019-01-26T18:23:03.829Z,48.37
2019-01-26T18:25:34.264Z,51.60
2019-01-26T18:28:02.877Z,49.63
2019-01-26T18:30:34.789Z,70.67
2019-01-26T18:33:03.388Z,47.90
2019-01-26T18:35:31.925Z,43.30
2019-01-26T18:38:00.695Z,39.63
2019-01-26T18:40:30.324Z,39.43
2019-01-26T18:42:59.083Z,38.50
2019-01-26T18:45:31.382Z,40.40
2019-01-26T18:48:00.953Z,37.53
2019-01-26T18:50:35.321Z,41.13
2019-01-26T18:53:04.258Z,39.27
2019-01-26T18:55:32.995Z,45.43
2019-01-26T18:58:03.106Z,56.30
2019-01-26T19:00:37.472Z,54.50
2019-01-26T19:03:15.319Z,52.40
2019-01-26T19:05:43.877Z,57.73
2019-01-26T19:08:12.346Z,56.60
2019-01-26T19:10:40.900Z,52.88
2019-01-26T19:13:09.451Z,54.97
2019-01-26T19:15:39.534Z,55.80
2019-01-26T19:18:08.152Z,55.33
2019-01-26T19:20:36.745Z,55.80
2019-01-26T19:23:05.581Z,56.03
2019-01-26T19:25:34.116Z,57.60
2019-01-26T19:28:02.598Z,59.90
2019-01-26T19:30:31.144Z,56.77
2019-01-26T19:32:59.909Z,61.10
2019-01-26T19:35:28.382Z,63.37
2019-01-26T19:37:56.869Z,61.73
2019-01-26T19:40:27.432Z,61.30
2019-01-26T19:42:55.936Z,61.50
2019-01-26T19:45:25.004Z,63.97
2019-01-26T19:47:53.702Z,58.13
2019-01-26T19:50:26.460Z,57.47
2019-01-26T19:52:55.015Z,55.20
2019-01-26T19:55:24.370Z,56.47
2019-01-26T19:57:52.916Z,57.00
2019-01-26T20:00:21.731Z,58.17
2019-01-26T20:02:51.534Z,58.03
2019-01-26T20:05:22.054Z,59.40
2019-01-26T20:07:50.790Z,68.60
2019-01-26T20:10:19.981Z,70.27
2019-01-26T20:12:48.689Z,66.73
2019-01-26T20:15:22.100Z,70.30
2019-01-26T20:17:50.977Z,70.47
2019-01-26T20:20:22.499Z,94.67
2019-01-26T20:22:51.239Z,78.23
2019-01-26T20:25:20.007Z,69.27
2019-01-26T20:27:48.624Z,63.30
2019-01-26T20:30:20.536Z,60.37
2019-01-26T20:32:50.098Z,85.50
2019-01-26T20:35:18.673Z,70.87
2019-01-26T20:37:47.226Z,66.43
2019-01-26T20:40:18.397Z,61.87
2019-01-26T20:42:47.050Z,60.87
2019-01-26T20:45:20.831Z,67.97
2019-01-26T20:47:49.417Z,63.97
2019-01-26T20:50:17.989Z,58.30
2019-01-26T20:52:46.602Z,54.20
2019-01-26T20:55:15.278Z,44.73
2019-01-26T20:57:44.011Z,45.90
2019-01-26T21:00:18.260Z,50.50
2019-01-26T21:02:46.842Z,61.93
2019-01-26T21:05:16.249Z,58.07
2019-01-26T21:07:44.814Z,62.63
2019-01-26T21:10:26.043Z,62.33
2019-01-26T21:12:54.744Z,59.60
2019-01-26T21:15:23.672Z,60.17
2019-01-26T21:17:52.264Z,62.40
2019-01-26T21:20:22.875Z,66.93
2019-01-26T21:22:51.533Z,61.20
2019-01-26T21:25:20.179Z,70.30
2019-01-26T21:27:48.997Z,72.30
2019-01-26T21:30:20.318Z,69.83
2019-01-26T21:32:48.999Z,64.93
2019-01-26T21:35:22.841Z,63.63
2019-01-26T21:37:51.442Z,65.87
2019-01-26T21:40:22.217Z,61.00
2019-01-26T21:42:50.780Z,60.57
2019-01-26T21:45:19.743Z,56.40
2019-01-26T21:47:48.451Z,58.23
2019-01-26T21:50:19.760Z,53.53
2019-01-26T21:52:48.469Z,52.23
2019-01-26T21:55:18.015Z,50.40
2019-01-26T21:57:46.556Z,47.77
2019-01-26T22:00:23.299Z,48.20
2019-01-26T22:02:52.023Z,50.40
2019-01-26T22:05:20.509Z,47.00
2019-01-26T22:07:49.351Z,50.57
2019-01-26T22:10:25.900Z,47.60
2019-01-26T22:12:54.640Z,46.07
2019-01-26T22:15:24.249Z,46.73
2019-01-26T22:17:52.985Z,46.03
2019-01-26T22:20:23.678Z,47.10
2019-01-26T22:22:52.806Z,49.50
2019-01-26T22:25:21.621Z,52.40
2019-01-26T22:27:50.324Z,58.13
2019-01-26T22:30:24.647Z,63.83
2019-01-26T22:32:53.201Z,66.57
2019-01-26T22:35:22.273Z,68.73
2019-01-26T22:37:50.756Z,68.40
2019-01-26T22:40:27.680Z,67.27
2019-01-26T22:42:56.246Z,66.17
2019-01-26T22:45:26.994Z,61.43
2019-01-26T22:47:55.709Z,52.43
2019-01-26T22:50:26.023Z,48.20
2019-01-26T22:52:55.051Z,45.77
2019-01-26T22:55:23.913Z,44.07
2019-01-26T22:57:53.443Z,39.00
2019-01-26T23:00:38.505Z,39.53
2019-01-26T23:03:09.876Z,36.17
2019-01-26T23:06:05.782Z,36.03
2019-01-26T23:08:35.818Z,36.37
2019-01-26T23:11:25.729Z,38.20
2019-01-26T23:13:57.258Z,37.53
2019-01-26T23:16:44.079Z,35.83
2019-01-26T23:19:24.773Z,35.67
2019-01-26T23:22:15.360Z,37.43
2019-01-26T23:24:53.103Z,34.40
2019-01-26T23:27:27.613Z,34.47
2019-01-26T23:30:32.345Z,33.83
2019-01-26T23:33:00.962Z,30.40
2019-01-26T23:35:29.517Z,31.33
